sensor_id;sensor_type;location;lat;lon;timestamp;P1;durP1;ratioP1;P2;durP2;ratioP2
71360;SDS011;59166;48.908;1.870;2022-08-11T00:02:56;9.50;;;4.45;;
71360;SDS011;59166;48.908;1.870;2022-08-11T00:08:04;9.88;;;4.63;;
71360;SDS011;59166;48.908;1.870;2022-08-11T00:13:05;11.37;;;4.17;;
71360;SDS011;59166;48.908;1.870;2022-08-11T00:18:08;10.77;;;4.50;;
71360;SDS011;59166;48.908;1.870;2022-08-11T00:23:11;9.50;;;4.60;;
71360;SDS011;59166;48.908;1.870;2022-08-11T00:28:27;8.97;;;4.27;;
71360;SDS011;59166;48.908;1.870;2022-08-11T00:33:32;8.27;;;4.47;;
71360;SDS011;59166;48.908;1.870;2022-08-11T00:38:37;9.07;;;4.65;;
71360;SDS011;59166;48.908;1.870;2022-08-11T00:43:48;15.93;;;4.63;;
71360;SDS011;59166;48.908;1.870;2022-08-11T00:49:06;8.30;;;4.20;;
71360;SDS011;59166;48.908;1.870;2022-08-11T00:54:18;10.38;;;4.40;;
71360;SDS011;59166;48.908;1.870;2022-08-11T01:05:15;8.47;;;4.40;;
71360;SDS011;59166;48.908;1.870;2022-08-11T01:27:21;9.68;;;4.50;;
71360;SDS011;59166;48.908;1.870;2022-08-11T01:44:11;11.80;;;4.20;;
71360;SDS011;59166;48.908;1.870;2022-08-11T01:49:23;9.32;;;4.53;;
71360;SDS011;59166;48.908;1.870;2022-08-11T01:54:33;8.60;;;4.50;;
71360;SDS011;59166;48.908;1.870;2022-08-11T01:59:42;8.00;;;4.00;;
71360;SDS011;59166;48.908;1.870;2022-08-11T02:04:49;9.10;;;4.47;;
71360;SDS011;59166;48.908;1.870;2022-08-11T02:10:02;8.65;;;4.30;;
71360;SDS011;59166;48.908;1.870;2022-08-11T02:15:13;10.13;;;4.63;;
71360;SDS011;59166;48.908;1.870;2022-08-11T02:20:24;9.70;;;4.70;;
71360;SDS011;59166;48.908;1.870;2022-08-11T02:25:33;8.88;;;4.40;;
71360;SDS011;59166;48.908;1.870;2022-08-11T02:30:38;8.30;;;4.50;;
71360;SDS011;59166;48.908;1.870;2022-08-11T02:35:54;8.83;;;4.40;;
71360;SDS011;59166;48.908;1.870;2022-08-11T02:41:07;9.55;;;4.55;;
71360;SDS011;59166;48.908;1.870;2022-08-11T02:46:19;8.35;;;4.47;;
71360;SDS011;59166;48.908;1.870;2022-08-11T02:51:28;9.80;;;4.17;;
71360;SDS011;59166;48.908;1.870;2022-08-11T02:56:38;13.98;;;4.60;;
71360;SDS011;59166;48.908;1.870;2022-08-11T03:01:51;8.05;;;4.20;;
71360;SDS011;59166;48.908;1.870;2022-08-11T03:06:58;8.73;;;4.20;;
71360;SDS011;59166;48.908;1.870;2022-08-11T03:12:08;11.98;;;4.78;;
71360;SDS011;59166;48.908;1.870;2022-08-11T03:17:15;10.38;;;4.25;;
71360;SDS011;59166;48.908;1.870;2022-08-11T03:22:24;9.40;;;4.35;;
71360;SDS011;59166;48.908;1.870;2022-08-11T03:27:33;8.43;;;4.20;;
71360;SDS011;59166;48.908;1.870;2022-08-11T03:32:45;8.38;;;4.20;;
71360;SDS011;59166;48.908;1.870;2022-08-11T03:37:54;7.75;;;4.05;;
71360;SDS011;59166;48.908;1.870;2022-08-11T03:43:06;10.93;;;4.40;;
71360;SDS011;59166;48.908;1.870;2022-08-11T03:48:18;10.60;;;4.50;;
71360;SDS011;59166;48.908;1.870;2022-08-11T03:53:43;9.77;;;4.40;;
71360;SDS011;59166;48.908;1.870;2022-08-11T03:59:06;9.13;;;4.83;;
71360;SDS011;59166;48.908;1.870;2022-08-11T04:04:29;9.48;;;4.40;;
71360;SDS011;59166;48.908;1.870;2022-08-11T04:15:49;8.93;;;4.40;;
71360;SDS011;59166;48.908;1.870;2022-08-11T04:21:14;8.97;;;4.80;;
71360;SDS011;59166;48.908;1.870;2022-08-11T04:26:39;10.50;;;4.60;;
71360;SDS011;59166;48.908;1.870;2022-08-11T04:32:20;10.45;;;4.57;;
71360;SDS011;59166;48.908;1.870;2022-08-11T04:37:47;7.80;;;4.17;;
71360;SDS011;59166;48.908;1.870;2022-08-11T04:48:44;9.25;;;4.20;;
71360;SDS011;59166;48.908;1.870;2022-08-11T04:53:57;8.13;;;4.23;;
71360;SDS011;59166;48.908;1.870;2022-08-11T05:04:55;8.13;;;4.20;;
71360;SDS011;59166;48.908;1.870;2022-08-11T05:10:06;8.63;;;4.20;;
71360;SDS011;59166;48.908;1.870;2022-08-11T05:15:18;11.23;;;4.20;;
71360;SDS011;59166;48.908;1.870;2022-08-11T05:20:25;8.45;;;4.40;;
71360;SDS011;59166;48.908;1.870;2022-08-11T05:25:28;8.45;;;4.07;;
71360;SDS011;59166;48.908;1.870;2022-08-11T05:30:31;8.50;;;4.17;;
71360;SDS011;59166;48.908;1.870;2022-08-11T05:35:35;11.70;;;4.47;;
71360;SDS011;59166;48.908;1.870;2022-08-11T05:40:46;9.02;;;4.22;;
71360;SDS011;59166;48.908;1.870;2022-08-11T05:45:55;7.47;;;4.23;;
71360;SDS011;59166;48.908;1.870;2022-08-11T05:51:00;10.05;;;4.72;;
71360;SDS011;59166;48.908;1.870;2022-08-11T05:56:03;9.57;;;4.75;;
71360;SDS011;59166;48.908;1.870;2022-08-11T06:01:05;9.20;;;4.30;;
71360;SDS011;59166;48.908;1.870;2022-08-11T06:06:08;8.50;;;4.23;;
71360;SDS011;59166;48.908;1.870;2022-08-11T06:11:09;8.55;;;4.40;;
71360;SDS011;59166;48.908;1.870;2022-08-11T06:16:10;9.80;;;4.60;;
71360;SDS011;59166;48.908;1.870;2022-08-11T06:21:14;9.95;;;4.78;;
71360;SDS011;59166;48.908;1.870;2022-08-11T06:26:16;10.77;;;4.65;;
71360;SDS011;59166;48.908;1.870;2022-08-11T06:31:18;11.60;;;4.70;;
71360;SDS011;59166;48.908;1.870;2022-08-11T06:36:22;8.82;;;4.80;;
71360;SDS011;59166;48.908;1.870;2022-08-11T06:41:32;11.70;;;4.55;;
71360;SDS011;59166;48.908;1.870;2022-08-11T06:46:40;10.00;;;4.70;;
71360;SDS011;59166;48.908;1.870;2022-08-11T06:51:46;8.73;;;4.40;;
71360;SDS011;59166;48.908;1.870;2022-08-11T06:56:47;9.27;;;4.20;;
71360;SDS011;59166;48.908;1.870;2022-08-11T07:01:51;8.27;;;4.20;;
71360;SDS011;59166;48.908;1.870;2022-08-11T07:07:05;9.97;;;4.40;;
71360;SDS011;59166;48.908;1.870;2022-08-11T07:17:45;10.68;;;4.40;;
71360;SDS011;59166;48.908;1.870;2022-08-11T07:22:53;8.70;;;4.50;;
71360;SDS011;59166;48.908;1.870;2022-08-11T07:27:57;9.25;;;4.20;;
71360;SDS011;59166;48.908;1.870;2022-08-11T07:33:00;9.50;;;4.10;;
71360;SDS011;59166;48.908;1.870;2022-08-11T07:38:04;9.85;;;4.03;;
71360;SDS011;59166;48.908;1.870;2022-08-11T07:43:07;9.20;;;3.83;;
71360;SDS011;59166;48.908;1.870;2022-08-11T07:48:09;9.07;;;4.00;;
71360;SDS011;59166;48.908;1.870;2022-08-11T07:53:13;9.07;;;4.30;;
71360;SDS011;59166;48.908;1.870;2022-08-11T07:58:14;7.43;;;3.70;;
71360;SDS011;59166;48.908;1.870;2022-08-11T08:03:16;9.80;;;4.10;;
71360;SDS011;59166;48.908;1.870;2022-08-11T08:08:18;12.30;;;4.30;;
71360;SDS011;59166;48.908;1.870;2022-08-11T08:13:19;10.32;;;3.97;;
71360;SDS011;59166;48.908;1.870;2022-08-11T08:18:20;9.10;;;4.10;;
71360;SDS011;59166;48.908;1.870;2022-08-11T08:23:25;13.47;;;4.13;;
71360;SDS011;59166;48.908;1.870;2022-08-11T08:28:26;13.25;;;4.40;;
71360;SDS011;59166;48.908;1.870;2022-08-11T08:33:28;12.55;;;4.40;;
71360;SDS011;59166;48.908;1.870;2022-08-11T08:38:32;12.53;;;4.23;;
71360;SDS011;59166;48.908;1.870;2022-08-11T08:43:33;10.90;;;4.10;;
71360;SDS011;59166;48.908;1.870;2022-08-11T08:48:34;9.85;;;4.10;;
71360;SDS011;59166;48.908;1.870;2022-08-11T08:53:38;10.63;;;4.20;;
71360;SDS011;59166;48.908;1.870;2022-08-11T08:58:40;10.30;;;3.90;;
71360;SDS011;59166;48.908;1.870;2022-08-11T09:03:45;10.30;;;3.90;;
71360;SDS011;59166;48.908;1.870;2022-08-11T09:08:47;10.87;;;3.80;;
71360;SDS011;59166;48.908;1.870;2022-08-11T09:13:48;11.63;;;3.40;;
71360;SDS011;59166;48.908;1.870;2022-08-11T09:18:51;10.30;;;3.80;;
71360;SDS011;59166;48.908;1.870;2022-08-11T09:23:53;8.48;;;3.83;;
71360;SDS011;59166;48.908;1.870;2022-08-11T09:28:55;9.87;;;3.60;;
71360;SDS011;59166;48.908;1.870;2022-08-11T09:33:58;9.07;;;3.50;;
71360;SDS011;59166;48.908;1.870;2022-08-11T09:39:01;9.85;;;3.40;;
71360;SDS011;59166;48.908;1.870;2022-08-11T09:44:04;7.33;;;3.47;;
71360;SDS011;59166;48.908;1.870;2022-08-11T09:49:05;8.10;;;3.28;;
71360;SDS011;59166;48.908;1.870;2022-08-11T09:54:07;8.53;;;3.10;;
71360;SDS011;59166;48.908;1.870;2022-08-11T09:59:08;7.80;;;3.38;;
71360;SDS011;59166;48.908;1.870;2022-08-11T10:04:10;7.25;;;3.10;;
71360;SDS011;59166;48.908;1.870;2022-08-11T10:09:16;10.48;;;3.30;;
71360;SDS011;59166;48.908;1.870;2022-08-11T10:14:20;7.93;;;3.00;;
71360;SDS011;59166;48.908;1.870;2022-08-11T10:19:21;7.60;;;3.13;;
71360;SDS011;59166;48.908;1.870;2022-08-11T10:24:25;10.48;;;3.10;;
71360;SDS011;59166;48.908;1.870;2022-08-11T10:29:26;7.03;;;2.87;;
71360;SDS011;59166;48.908;1.870;2022-08-11T10:34:30;9.63;;;2.80;;
71360;SDS011;59166;48.908;1.870;2022-08-11T10:39:33;12.52;;;2.90;;
71360;SDS011;59166;48.908;1.870;2022-08-11T10:44:37;8.13;;;2.97;;
71360;SDS011;59166;48.908;1.870;2022-08-11T10:49:39;8.13;;;3.20;;
71360;SDS011;59166;48.908;1.870;2022-08-11T10:54:41;8.07;;;3.50;;
71360;SDS011;59166;48.908;1.870;2022-08-11T10:59:43;8.57;;;3.42;;
71360;SDS011;59166;48.908;1.870;2022-08-11T11:10:11;6.88;;;3.20;;
71360;SDS011;59166;48.908;1.870;2022-08-11T11:15:12;7.28;;;3.00;;
71360;SDS011;59166;48.908;1.870;2022-08-11T11:20:18;7.27;;;2.70;;
71360;SDS011;59166;48.908;1.870;2022-08-11T11:25:35;9.90;;;3.35;;
71360;SDS011;59166;48.908;1.870;2022-08-11T11:30:50;8.95;;;3.40;;
71360;SDS011;59166;48.908;1.870;2022-08-11T11:36:05;7.23;;;3.40;;
71360;SDS011;59166;48.908;1.870;2022-08-11T11:41:13;7.78;;;3.40;;
71360;SDS011;59166;48.908;1.870;2022-08-11T11:46:14;7.68;;;2.95;;
71360;SDS011;59166;48.908;1.870;2022-08-11T11:51:16;6.93;;;3.50;;
71360;SDS011;59166;48.908;1.870;2022-08-11T11:56:19;11.03;;;3.30;;
71360;SDS011;59166;48.908;1.870;2022-08-11T12:01:23;9.40;;;3.40;;
71360;SDS011;59166;48.908;1.870;2022-08-11T12:06:24;7.03;;;3.20;;
71360;SDS011;59166;48.908;1.870;2022-08-11T12:11:27;9.23;;;3.23;;
71360;SDS011;59166;48.908;1.870;2022-08-11T12:16:29;8.65;;;3.10;;
71360;SDS011;59166;48.908;1.870;2022-08-11T12:21:30;7.22;;;3.30;;
71360;SDS011;59166;48.908;1.870;2022-08-11T12:26:34;7.97;;;3.40;;
71360;SDS011;59166;48.908;1.870;2022-08-11T12:31:37;8.13;;;3.50;;
71360;SDS011;59166;48.908;1.870;2022-08-11T12:36:43;6.20;;;3.30;;
71360;SDS011;59166;48.908;1.870;2022-08-11T12:41:50;7.68;;;3.50;;
71360;SDS011;59166;48.908;1.870;2022-08-11T12:46:51;8.67;;;3.40;;
71360;SDS011;59166;48.908;1.870;2022-08-11T12:51:53;9.77;;;3.45;;
71360;SDS011;59166;48.908;1.870;2022-08-11T12:56:58;8.65;;;3.30;;
71360;SDS011;59166;48.908;1.870;2022-08-11T13:02:00;6.90;;;3.23;;
71360;SDS011;59166;48.908;1.870;2022-08-11T13:07:01;8.27;;;3.20;;
71360;SDS011;59166;48.908;1.870;2022-08-11T13:12:05;10.63;;;3.55;;
71360;SDS011;59166;48.908;1.870;2022-08-11T13:17:06;8.27;;;3.10;;
71360;SDS011;59166;48.908;1.870;2022-08-11T13:22:06;7.70;;;3.15;;
71360;SDS011;59166;48.908;1.870;2022-08-11T13:27:09;7.10;;;3.00;;
71360;SDS011;59166;48.908;1.870;2022-08-11T13:32:09;7.25;;;3.22;;
71360;SDS011;59166;48.908;1.870;2022-08-11T13:37:11;6.67;;;3.30;;
71360;SDS011;59166;48.908;1.870;2022-08-11T13:42:15;12.37;;;3.60;;
71360;SDS011;59166;48.908;1.870;2022-08-11T13:47:19;11.73;;;3.67;;
71360;SDS011;59166;48.908;1.870;2022-08-11T13:52:20;8.70;;;3.23;;
71360;SDS011;59166;48.908;1.870;2022-08-11T13:57:22;13.47;;;3.30;;
71360;SDS011;59166;48.908;1.870;2022-08-11T14:02:25;7.47;;;2.80;;
71360;SDS011;59166;48.908;1.870;2022-08-11T14:07:36;8.32;;;3.25;;
71360;SDS011;59166;48.908;1.870;2022-08-11T14:12:40;8.50;;;3.40;;
71360;SDS011;59166;48.908;1.870;2022-08-11T14:17:47;7.72;;;3.28;;
71360;SDS011;59166;48.908;1.870;2022-08-11T14:22:51;9.60;;;3.58;;
71360;SDS011;59166;48.908;1.870;2022-08-11T14:27:53;8.00;;;3.53;;
71360;SDS011;59166;48.908;1.870;2022-08-11T14:32:54;6.80;;;3.50;;
71360;SDS011;59166;48.908;1.870;2022-08-11T14:37:56;8.23;;;3.40;;
71360;SDS011;59166;48.908;1.870;2022-08-11T14:42:59;14.37;;;3.73;;
71360;SDS011;59166;48.908;1.870;2022-08-11T14:48:02;12.45;;;3.65;;
71360;SDS011;59166;48.908;1.870;2022-08-11T14:53:08;11.20;;;3.65;;
71360;SDS011;59166;48.908;1.870;2022-08-11T14:58:13;10.15;;;3.65;;
71360;SDS011;59166;48.908;1.870;2022-08-11T15:03:16;11.77;;;4.00;;
71360;SDS011;59166;48.908;1.870;2022-08-11T15:08:17;7.40;;;3.70;;
71360;SDS011;59166;48.908;1.870;2022-08-11T15:13:20;8.40;;;3.80;;
71360;SDS011;59166;48.908;1.870;2022-08-11T15:18:21;8.00;;;3.50;;
71360;SDS011;59166;48.908;1.870;2022-08-11T15:23:23;9.35;;;3.60;;
71360;SDS011;59166;48.908;1.870;2022-08-11T15:28:26;7.37;;;3.73;;
71360;SDS011;59166;48.908;1.870;2022-08-11T15:33:28;7.68;;;3.60;;
71360;SDS011;59166;48.908;1.870;2022-08-11T15:38:30;7.43;;;3.58;;
71360;SDS011;59166;48.908;1.870;2022-08-11T15:43:37;7.40;;;3.30;;
71360;SDS011;59166;48.908;1.870;2022-08-11T15:48:43;8.53;;;3.60;;
71360;SDS011;59166;48.908;1.870;2022-08-11T15:53:48;7.97;;;3.75;;
71360;SDS011;59166;48.908;1.870;2022-08-11T15:58:53;10.10;;;3.63;;
71360;SDS011;59166;48.908;1.870;2022-08-11T16:03:59;8.00;;;3.70;;
71360;SDS011;59166;48.908;1.870;2022-08-11T16:09:02;10.35;;;3.70;;
71360;SDS011;59166;48.908;1.870;2022-08-11T16:14:07;8.75;;;3.60;;
71360;SDS011;59166;48.908;1.870;2022-08-11T16:19:11;7.30;;;3.60;;
71360;SDS011;59166;48.908;1.870;2022-08-11T16:24:14;7.55;;;3.70;;
71360;SDS011;59166;48.908;1.870;2022-08-11T16:29:19;11.68;;;4.25;;
71360;SDS011;59166;48.908;1.870;2022-08-11T16:34:22;11.27;;;4.10;;
71360;SDS011;59166;48.908;1.870;2022-08-11T16:39:23;8.27;;;3.83;;
71360;SDS011;59166;48.908;1.870;2022-08-11T16:44:25;7.50;;;3.75;;
71360;SDS011;59166;48.908;1.870;2022-08-11T16:49:29;13.23;;;3.80;;
71360;SDS011;59166;48.908;1.870;2022-08-11T16:54:32;13.50;;;3.80;;
71360;SDS011;59166;48.908;1.870;2022-08-11T16:59:36;7.65;;;3.58;;
71360;SDS011;59166;48.908;1.870;2022-08-11T17:04:38;9.70;;;4.10;;
71360;SDS011;59166;48.908;1.870;2022-08-11T17:09:45;12.55;;;3.60;;
71360;SDS011;59166;48.908;1.870;2022-08-11T17:14:50;14.30;;;4.30;;
71360;SDS011;59166;48.908;1.870;2022-08-11T17:19:54;7.05;;;3.50;;
71360;SDS011;59166;48.908;1.870;2022-08-11T17:25:00;9.43;;;3.87;;
71360;SDS011;59166;48.908;1.870;2022-08-11T17:30:04;7.97;;;3.70;;
71360;SDS011;59166;48.908;1.870;2022-08-11T17:35:07;7.85;;;3.75;;
71360;SDS011;59166;48.908;1.870;2022-08-11T17:40:11;9.37;;;3.80;;
71360;SDS011;59166;48.908;1.870;2022-08-11T17:45:18;9.85;;;3.90;;
71360;SDS011;59166;48.908;1.870;2022-08-11T17:50:21;8.40;;;3.65;;
71360;SDS011;59166;48.908;1.870;2022-08-11T17:55:22;8.47;;;3.63;;
71360;SDS011;59166;48.908;1.870;2022-08-11T18:00:25;10.27;;;3.90;;
71360;SDS011;59166;48.908;1.870;2022-08-11T18:05:27;8.90;;;3.38;;
71360;SDS011;59166;48.908;1.870;2022-08-11T18:10:30;6.95;;;3.70;;
71360;SDS011;59166;48.908;1.870;2022-08-11T18:15:33;9.43;;;3.70;;
71360;SDS011;59166;48.908;1.870;2022-08-11T18:20:36;9.32;;;3.72;;
71360;SDS011;59166;48.908;1.870;2022-08-11T18:25:38;8.00;;;3.97;;
71360;SDS011;59166;48.908;1.870;2022-08-11T18:30:43;10.88;;;3.92;;
71360;SDS011;59166;48.908;1.870;2022-08-11T18:35:48;9.48;;;3.78;;
71360;SDS011;59166;48.908;1.870;2022-08-11T18:40:52;10.63;;;3.60;;
71360;SDS011;59166;48.908;1.870;2022-08-11T18:46:00;8.95;;;3.70;;
71360;SDS011;59166;48.908;1.870;2022-08-11T18:51:05;9.38;;;3.83;;
71360;SDS011;59166;48.908;1.870;2022-08-11T18:56:08;10.30;;;3.97;;
71360;SDS011;59166;48.908;1.870;2022-08-11T19:01:12;9.13;;;3.93;;
71360;SDS011;59166;48.908;1.870;2022-08-11T19:06:15;7.38;;;3.83;;
71360;SDS011;59166;48.908;1.870;2022-08-11T19:11:18;8.77;;;4.10;;
71360;SDS011;59166;48.908;1.870;2022-08-11T19:16:21;7.87;;;3.97;;
71360;SDS011;59166;48.908;1.870;2022-08-11T19:21:24;7.45;;;4.05;;
71360;SDS011;59166;48.908;1.870;2022-08-11T19:26:26;8.55;;;4.10;;
71360;SDS011;59166;48.908;1.870;2022-08-11T19:31:30;9.07;;;4.00;;
71360;SDS011;59166;48.908;1.870;2022-08-11T19:36:31;8.00;;;3.85;;
71360;SDS011;59166;48.908;1.870;2022-08-11T19:41:33;8.48;;;4.20;;
71360;SDS011;59166;48.908;1.870;2022-08-11T19:46:36;8.25;;;4.00;;
71360;SDS011;59166;48.908;1.870;2022-08-11T19:51:39;7.93;;;4.13;;
71360;SDS011;59166;48.908;1.870;2022-08-11T19:56:40;7.78;;;4.00;;
71360;SDS011;59166;48.908;1.870;2022-08-11T20:01:44;9.45;;;4.10;;
71360;SDS011;59166;48.908;1.870;2022-08-11T20:06:45;8.50;;;4.00;;
71360;SDS011;59166;48.908;1.870;2022-08-11T20:11:48;9.27;;;4.07;;
71360;SDS011;59166;48.908;1.870;2022-08-11T20:16:53;8.25;;;3.65;;
71360;SDS011;59166;48.908;1.870;2022-08-11T20:21:56;8.73;;;4.10;;
71360;SDS011;59166;48.908;1.870;2022-08-11T20:26:58;9.68;;;4.30;;
71360;SDS011;59166;48.908;1.870;2022-08-11T20:32:02;8.52;;;3.90;;
71360;SDS011;59166;48.908;1.870;2022-08-11T20:37:03;10.87;;;4.20;;
71360;SDS011;59166;48.908;1.870;2022-08-11T20:42:07;10.02;;;4.22;;
71360;SDS011;59166;48.908;1.870;2022-08-11T20:47:10;11.40;;;4.18;;
71360;SDS011;59166;48.908;1.870;2022-08-11T20:52:13;9.52;;;4.03;;
71360;SDS011;59166;48.908;1.870;2022-08-11T20:57:16;9.57;;;4.33;;
71360;SDS011;59166;48.908;1.870;2022-08-11T21:02:19;7.32;;;4.22;;
71360;SDS011;59166;48.908;1.870;2022-08-11T21:07:21;9.70;;;4.20;;
71360;SDS011;59166;48.908;1.870;2022-08-11T21:12:24;7.60;;;4.23;;
71360;SDS011;59166;48.908;1.870;2022-08-11T21:17:30;8.15;;;4.13;;
71360;SDS011;59166;48.908;1.870;2022-08-11T21:22:34;7.93;;;4.32;;
71360;SDS011;59166;48.908;1.870;2022-08-11T21:27:38;10.33;;;4.60;;
71360;SDS011;59166;48.908;1.870;2022-08-11T21:32:42;10.60;;;4.50;;
71360;SDS011;59166;48.908;1.870;2022-08-11T21:37:44;8.00;;;4.30;;
71360;SDS011;59166;48.908;1.870;2022-08-11T21:42:46;9.60;;;4.63;;
71360;SDS011;59166;48.908;1.870;2022-08-11T21:47:49;8.97;;;4.33;;
71360;SDS011;59166;48.908;1.870;2022-08-11T21:52:51;9.27;;;4.55;;
71360;SDS011;59166;48.908;1.870;2022-08-11T21:57:52;9.57;;;4.30;;
71360;SDS011;59166;48.908;1.870;2022-08-11T22:02:54;10.88;;;4.70;;
71360;SDS011;59166;48.908;1.870;2022-08-11T22:07:55;8.77;;;4.43;;
71360;SDS011;59166;48.908;1.870;2022-08-11T22:12:56;8.57;;;4.50;;
71360;SDS011;59166;48.908;1.870;2022-08-11T22:17:58;9.77;;;4.80;;
71360;SDS011;59166;48.908;1.870;2022-08-11T22:23:00;11.07;;;4.60;;
71360;SDS011;59166;48.908;1.870;2022-08-11T22:28:02;10.02;;;4.65;;
71360;SDS011;59166;48.908;1.870;2022-08-11T22:33:04;9.30;;;4.68;;
71360;SDS011;59166;48.908;1.870;2022-08-11T22:38:06;9.20;;;4.77;;
71360;SDS011;59166;48.908;1.870;2022-08-11T22:43:08;9.25;;;4.80;;
71360;SDS011;59166;48.908;1.870;2022-08-11T22:48:10;8.30;;;4.73;;
71360;SDS011;59166;48.908;1.870;2022-08-11T22:53:12;8.15;;;4.40;;
71360;SDS011;59166;48.908;1.870;2022-08-11T22:58:14;9.77;;;4.82;;
71360;SDS011;59166;48.908;1.870;2022-08-11T23:03:18;8.43;;;4.53;;
71360;SDS011;59166;48.908;1.870;2022-08-11T23:08:19;11.60;;;4.85;;
71360;SDS011;59166;48.908;1.870;2022-08-11T23:13:20;9.65;;;4.78;;
71360;SDS011;59166;48.908;1.870;2022-08-11T23:18:23;10.10;;;4.70;;
71360;SDS011;59166;48.908;1.870;2022-08-11T23:23:25;8.47;;;4.80;;
71360;SDS011;59166;48.908;1.870;2022-08-11T23:28:27;9.50;;;5.25;;
71360;SDS011;59166;48.908;1.870;2022-08-11T23:33:32;11.43;;;5.22;;
71360;SDS011;59166;48.908;1.870;2022-08-11T23:38:36;10.23;;;4.60;;
71360;SDS011;59166;48.908;1.870;2022-08-11T23:43:36;9.85;;;4.90;;
71360;SDS011;59166;48.908;1.870;2022-08-11T23:48:39;9.40;;;5.03;;
71360;SDS011;59166;48.908;1.870;2022-08-11T23:53:41;8.83;;;5.00;;
71360;SDS011;59166;48.908;1.870;2022-08-11T23:58:42;9.40;;;5.07;;
